sensor_id;sensor_type;location;lat;lon;timestamp;P1;durP1;ratioP1;P2;durP2;ratioP2
21899;SDS011;11114;50.658;12.704;2024-01-11T15:57:33;44.38;;;29.95;;
21899;SDS011;11114;50.658;12.704;2024-01-11T16:00:30;38.50;;;29.85;;
21899;SDS011;11114;50.658;12.704;2024-01-11T16:03:23;37.65;;;29.50;;
21899;SDS011;11114;50.658;12.704;2024-01-11T16:06:13;38.03;;;30.52;;
21899;SDS011;11114;50.658;12.704;2024-01-11T16:09:00;40.03;;;31.23;;
21899;SDS011;11114;50.658;12.704;2024-01-11T16:11:49;43.58;;;30.60;;
21899;SDS011;11114;50.658;12.704;2024-01-11T16:14:36;41.92;;;32.20;;
21899;SDS011;11114;50.658;12.704;2024-01-11T16:17:24;37.88;;;29.60;;
21899;SDS011;11114;50.658;12.704;2024-01-11T16:20:15;38.35;;;29.48;;
21899;SDS011;11114;50.658;12.704;2024-01-11T16:23:02;40.10;;;30.80;;
21899;SDS011;11114;50.658;12.704;2024-01-11T16:25:49;39.45;;;30.05;;
21899;SDS011;11114;50.658;12.704;2024-01-11T16:28:36;37.70;;;30.08;;
21899;SDS011;11114;50.658;12.704;2024-01-11T16:31:22;42.45;;;31.40;;
21899;SDS011;11114;50.658;12.704;2024-01-11T16:34:11;41.58;;;30.63;;
21899;SDS011;11114;50.658;12.704;2024-01-11T16:36:58;44.97;;;31.67;;
21899;SDS011;11114;50.658;12.704;2024-01-11T16:39:46;39.90;;;29.08;;
21899;SDS011;11114;50.658;12.704;2024-01-11T16:42:34;40.50;;;29.98;;
21899;SDS011;11114;50.658;12.704;2024-01-11T16:45:25;46.97;;;32.95;;
21899;SDS011;11114;50.658;12.704;2024-01-11T16:48:11;40.47;;;30.08;;
21899;SDS011;11114;50.658;12.704;2024-01-11T16:51:03;40.78;;;31.17;;
21899;SDS011;11114;50.658;12.704;2024-01-11T16:53:50;43.25;;;32.03;;
21899;SDS011;11114;50.658;12.704;2024-01-11T16:56:37;38.80;;;29.20;;
21899;SDS011;11114;50.658;12.704;2024-01-11T16:59:23;35.13;;;27.42;;
21899;SDS011;11114;50.658;12.704;2024-01-11T17:02:10;34.47;;;26.80;;
21899;SDS011;11114;50.658;12.704;2024-01-11T17:04:58;35.75;;;27.05;;
21899;SDS011;11114;50.658;12.704;2024-01-11T17:07:45;38.95;;;28.98;;
21899;SDS011;11114;50.658;12.704;2024-01-11T17:10:32;39.05;;;30.38;;
21899;SDS011;11114;50.658;12.704;2024-01-11T17:13:20;42.28;;;30.77;;
21899;SDS011;11114;50.658;12.704;2024-01-11T17:16:08;45.22;;;33.22;;
21899;SDS011;11114;50.658;12.704;2024-01-11T17:19:48;43.38;;;30.95;;
21899;SDS011;11114;50.658;12.704;2024-01-11T17:22:41;47.25;;;31.67;;
21899;SDS011;11114;50.658;12.704;2024-01-11T17:25:30;43.33;;;30.20;;
21899;SDS011;11114;50.658;12.704;2024-01-11T17:29:12;46.80;;;33.75;;
21899;SDS011;11114;50.658;12.704;2024-01-11T17:33:45;47.00;;;32.85;;
21899;SDS011;11114;50.658;12.704;2024-01-11T17:46:04;60.53;;;38.28;;
21899;SDS011;11114;50.658;12.704;2024-01-11T17:49:06;54.78;;;37.53;;
21899;SDS011;11114;50.658;12.704;2024-01-11T18:02:57;57.25;;;37.42;;
21899;SDS011;11114;50.658;12.704;2024-01-11T18:06:18;59.15;;;39.10;;
21899;SDS011;11114;50.658;12.704;2024-01-11T18:09:06;56.10;;;37.92;;
21899;SDS011;11114;50.658;12.704;2024-01-11T18:11:53;59.35;;;39.75;;
21899;SDS011;11114;50.658;12.704;2024-01-11T18:14:41;57.72;;;39.05;;
21899;SDS011;11114;50.658;12.704;2024-01-11T18:17:29;60.03;;;38.53;;
21899;SDS011;11114;50.658;12.704;2024-01-11T18:20:16;52.72;;;35.72;;
21899;SDS011;11114;50.658;12.704;2024-01-11T18:23:03;59.60;;;38.22;;
21899;SDS011;11114;50.658;12.704;2024-01-11T18:25:50;59.50;;;38.75;;
21899;SDS011;11114;50.658;12.704;2024-01-11T18:28:37;65.43;;;40.47;;
21899;SDS011;11114;50.658;12.704;2024-01-11T18:31:27;65.80;;;39.45;;
21899;SDS011;11114;50.658;12.704;2024-01-11T18:34:13;62.10;;;39.65;;
21899;SDS011;11114;50.658;12.704;2024-01-11T18:37:01;58.55;;;39.22;;
21899;SDS011;11114;50.658;12.704;2024-01-11T18:39:48;57.97;;;36.88;;
21899;SDS011;11114;50.658;12.704;2024-01-11T18:42:34;47.17;;;33.72;;
21899;SDS011;11114;50.658;12.704;2024-01-11T18:45:21;59.60;;;38.72;;
21899;SDS011;11114;50.658;12.704;2024-01-11T18:48:08;50.97;;;34.20;;
21899;SDS011;11114;50.658;12.704;2024-01-11T18:50:57;54.15;;;35.53;;
21899;SDS011;11114;50.658;12.704;2024-01-11T18:53:44;44.92;;;32.55;;
21899;SDS011;11114;50.658;12.704;2024-01-11T18:56:31;45.17;;;33.42;;
21899;SDS011;11114;50.658;12.704;2024-01-11T18:59:17;54.35;;;35.78;;
21899;SDS011;11114;50.658;12.704;2024-01-11T19:02:04;56.40;;;35.35;;
21899;SDS011;11114;50.658;12.704;2024-01-11T19:04:51;46.78;;;29.45;;
21899;SDS011;11114;50.658;12.704;2024-01-11T19:07:39;48.45;;;33.33;;
21899;SDS011;11114;50.658;12.704;2024-01-11T19:10:25;52.58;;;34.88;;
21899;SDS011;11114;50.658;12.704;2024-01-11T19:13:11;45.22;;;32.67;;
21899;SDS011;11114;50.658;12.704;2024-01-11T19:15:57;47.60;;;30.77;;
21899;SDS011;11114;50.658;12.704;2024-01-11T19:18:51;50.58;;;34.92;;
21899;SDS011;11114;50.658;12.704;2024-01-11T19:21:38;37.28;;;29.25;;
21899;SDS011;11114;50.658;12.704;2024-01-11T19:24:25;44.65;;;31.67;;
21899;SDS011;11114;50.658;12.704;2024-01-11T19:27:12;44.90;;;31.42;;
21899;SDS011;11114;50.658;12.704;2024-01-11T19:29:58;45.47;;;31.05;;
21899;SDS011;11114;50.658;12.704;2024-01-11T19:35:36;33.38;;;26.20;;
21899;SDS011;11114;50.658;12.704;2024-01-11T19:38:22;39.10;;;28.80;;
21899;SDS011;11114;50.658;12.704;2024-01-11T19:41:09;42.78;;;31.15;;
21899;SDS011;11114;50.658;12.704;2024-01-11T19:43:56;42.35;;;30.17;;
21899;SDS011;11114;50.658;12.704;2024-01-11T19:46:42;35.95;;;25.92;;
21899;SDS011;11114;50.658;12.704;2024-01-11T19:49:30;38.22;;;28.48;;
21899;SDS011;11114;50.658;12.704;2024-01-11T19:52:16;36.33;;;28.65;;
21899;SDS011;11114;50.658;12.704;2024-01-11T19:55:03;34.05;;;26.92;;
21899;SDS011;11114;50.658;12.704;2024-01-11T19:57:50;36.67;;;28.38;;
21899;SDS011;11114;50.658;12.704;2024-01-11T20:00:36;32.83;;;26.45;;
21899;SDS011;11114;50.658;12.704;2024-01-11T20:03:27;39.08;;;29.42;;
21899;SDS011;11114;50.658;12.704;2024-01-11T20:06:13;33.78;;;26.20;;
21899;SDS011;11114;50.658;12.704;2024-01-11T20:09:03;29.15;;;23.92;;
21899;SDS011;11114;50.658;12.704;2024-01-11T20:11:49;30.52;;;25.58;;
21899;SDS011;11114;50.658;12.704;2024-01-11T20:14:37;33.20;;;26.58;;
21899;SDS011;11114;50.658;12.704;2024-01-11T20:17:27;31.08;;;25.70;;
21899;SDS011;11114;50.658;12.704;2024-01-11T20:20:14;30.60;;;24.63;;
21899;SDS011;11114;50.658;12.704;2024-01-11T20:23:00;26.25;;;22.27;;
21899;SDS011;11114;50.658;12.704;2024-01-11T20:25:47;28.17;;;23.60;;
21899;SDS011;11114;50.658;12.704;2024-01-11T20:28:37;26.55;;;23.35;;
21899;SDS011;11114;50.658;12.704;2024-01-11T20:31:23;29.63;;;24.65;;
21899;SDS011;11114;50.658;12.704;2024-01-11T20:34:12;26.10;;;23.05;;
21899;SDS011;11114;50.658;12.704;2024-01-11T20:37:00;20.88;;;18.90;;
21899;SDS011;11114;50.658;12.704;2024-01-11T20:39:47;26.20;;;23.05;;
21899;SDS011;11114;50.658;12.704;2024-01-11T20:42:33;24.13;;;21.52;;
21899;SDS011;11114;50.658;12.704;2024-01-11T20:45:20;22.95;;;20.63;;
21899;SDS011;11114;50.658;12.704;2024-01-11T20:48:06;20.85;;;18.85;;
21899;SDS011;11114;50.658;12.704;2024-01-11T20:50:53;21.88;;;19.77;;
21899;SDS011;11114;50.658;12.704;2024-01-11T20:53:40;23.63;;;21.17;;
21899;SDS011;11114;50.658;12.704;2024-01-11T20:56:26;24.92;;;22.27;;
21899;SDS011;11114;50.658;12.704;2024-01-11T20:59:17;27.15;;;24.15;;
21899;SDS011;11114;50.658;12.704;2024-01-11T21:02:04;24.95;;;22.45;;
21899;SDS011;11114;50.658;12.704;2024-01-11T21:04:51;24.05;;;21.55;;
21899;SDS011;11114;50.658;12.704;2024-01-11T21:07:41;28.90;;;23.45;;
21899;SDS011;11114;50.658;12.704;2024-01-11T21:10:29;24.25;;;21.67;;
21899;SDS011;11114;50.658;12.704;2024-01-11T21:13:16;23.20;;;20.77;;
